Disney Magic — C6PT7 — position and weather

sailwx.info

Track history (hours):
 
Tides and Currents Weather Stations Pressure Air Temp Water Temp Dewpoint Dewpoint Depression Visibility Wind Speed Wind Dir Waves Ship Positions

Disney Magic

Last reported at 2019-Jul-19 19:30 UTC. Time now 2019-Jul-19 19:31 UTC.
Position N 48°33' W 005°21'.

Type: Passenger vessel. MMSI: 308516000.

Date/timePositionNaut miles runAvg speedWind from/ knotsBaromVisibWave heightAir tempDewpointWater temp
2019-Jul-19 19:30N 48°33' W 005°21'916.6
2019-Jul-19 18:58N 48°24' W 005°22'817.1
2019-Jul-19 18:31N 48°21' W 005°11'917.9
2019-Jul-19 18:00N 48°16' W 004°59'918.4
2019-Jul-19 17:30N 48°17' W 004°45'714.1
2019-Jul-19 17:01N 48°20' W 004°36'611.2
2019-Jul-19 16:31N 48°22' W 004°28'1 1.8
2019-Jul-19 15:58N 48°23' W 004°27'0 0.0
2019-Jul-19 15:28N 48°23' W 004°27'0 0.0
2019-Jul-19 14:58N 48°23' W 004°27'0 0.0
2019-Jul-19 14:28N 48°23' W 004°27'0 0.0
2019-Jul-19 13:58N 48°23' W 004°27'0 0.0
2019-Jul-19 13:28N 48°23' W 004°27'0 0.0
2019-Jul-19 12:58N 48°23' W 004°27'0 0.0
2019-Jul-19 12:28N 48°23' W 004°27'0 0.0
2019-Jul-19 11:58N 48°23' W 004°27'0 0.0
2019-Jul-19 11:28N 48°23' W 004°27'0 0.0
2019-Jul-19 10:58N 48°23' W 004°27'0 0.0
2019-Jul-19 10:28N 48°23' W 004°27'0 0.0
2019-Jul-19 09:58N 48°23' W 004°27'0 0.0
2019-Jul-19 09:28N 48°23' W 004°27'0 0.0
2019-Jul-19 08:58N 48°23' W 004°27'0 0.0
2019-Jul-19 08:28N 48°23' W 004°27'0 0.0
2019-Jul-19 07:58N 48°23' W 004°27'0 0.0
2019-Jul-19 07:28N 48°23' W 004°27'0 0.0
2019-Jul-19 06:58N 48°23' W 004°27'0 0.0
2019-Jul-19 06:28N 48°23' W 004°27'0 0.0
2019-Jul-19 05:58N 48°23' W 004°27'0 0.0
2019-Jul-19 05:28N 48°23' W 004°27'0 0.0
2019-Jul-19 05:00N 48°23' W 004°27'1 2.3
2019-Jul-19 04:30N 48°22' W 004°28'713.3
2019-Jul-19 04:00N 48°20' W 004°38'510.3
2019-Jul-19 03:30N 48°17' W 004°44'613.0
2019-Jul-19 03:01N 48°14' W 004°53'815.8
2019-Jul-19 02:31N 48°10' W 005°03'816.1
2019-Jul-19 02:01N 48°06' W 005°13'815.6
2019-Jul-19 01:30N 47°59' W 005°20'816.8
2019-Jul-19 01:00N 47°52' W 005°27'1017.8
2019-Jul-19 00:27N 47°44' W 005°35'817.3
2019-Jul-19 00:00N 47°38' W 005°41'1117.4
2019-Jul-18 23:23N 47°29' W 005°50'916.4
2019-Jul-18 22:50N 47°21' W 005°57'816.8
2019-Jul-18 22:20N 47°13' W 006°03'616.8
2019-Jul-18 21:57N 47°08' W 006°08'917.3
2019-Jul-18 21:27N 47°00' W 006°14'1417.0
2019-Jul-18 20:38N 46°50' W 006°27'31020.2
2019-Jul-18 05:16N 42°14' W 009°46'721.0
2019-Jul-18 04:56N 42°07' W 009°45'4720.5
2019-Jul-18 02:37N 41°20' W 009°45'220.0
2019-Jul-18 02:31N 41°17' W 009°45'1020.1
2019-Jul-18 02:01N 41°07' W 009°45'1020.0
2019-Jul-18 01:30N 40°57' W 009°45'1019.8
2019-Jul-18 01:00N 40°47' W 009°44'1419.6
2019-Jul-18 00:17N 40°33' W 009°44'619.7
2019-Jul-18 00:00N 40°28' W 009°44'3019.5
2019-Jul-17 22:28N 39°58' W 009°44'1419.5
2019-Jul-17 21:45N 39°44' W 009°44'919.5
2019-Jul-17 21:19N 39°35' W 009°43'719.5
2019-Jul-17 20:58N 39°29' W 009°43'919.0
2019-Jul-17 20:30N 39°20' W 009°43'918.8
2019-Jul-17 20:00N 39°10' W 009°43'918.9
2019-Jul-17 19:31N 39°01' W 009°43'1019.1
2019-Jul-17 19:00N 38°51' W 009°43'1019.0
2019-Jul-17 18:30N 38°42' W 009°42'714.9
2019-Jul-17 18:00N 38°37' W 009°35'816.6
2019-Jul-17 17:31N 38°36' W 009°24'816.6
2019-Jul-17 17:00N 38°41' W 009°16'5 9.7
2019-Jul-17 16:31N 38°42' W 009°09'2 3.1
2019-Jul-17 15:58N 38°43' W 009°08'0 0.0
2019-Jul-17 15:28N 38°43' W 009°08'0 0.0
2019-Jul-17 14:59N 38°43' W 009°08'0 0.0
2019-Jul-17 14:29N 38°43' W 009°08'0 0.0
2019-Jul-17 13:58N 38°43' W 009°08'0 0.0
2019-Jul-17 13:29N 38°43' W 009°08'0 0.0
2019-Jul-17 12:58N 38°43' W 009°08'0 0.0
2019-Jul-17 12:29N 38°43' W 009°08'0 0.0
2019-Jul-17 11:59N 38°43' W 009°08'0 0.0
2019-Jul-17 11:28N 38°43' W 009°08'0 0.0
2019-Jul-17 10:58N 38°43' W 009°08'0 0.0
2019-Jul-17 10:28N 38°43' W 009°08'0 0.0
2019-Jul-17 09:58N 38°43' W 009°08'0 0.0
2019-Jul-17 09:28N 38°43' W 009°08'0 0.0
2019-Jul-17 08:58N 38°43' W 009°08'0 0.0
2019-Jul-17 08:22N 38°43' W 009°08'0 0.0
2019-Jul-17 07:58N 38°43' W 009°08'0 0.0
2019-Jul-17 07:28N 38°43' W 009°08'0 0.0
2019-Jul-17 06:58N 38°43' W 009°08'1 1.4
2019-Jul-17 06:30N 38°42' W 009°08'5 9.5
2019-Jul-17 06:00N 38°41' W 009°14'612.3
2019-Jul-17 05:31N 38°38' W 009°21'816.2
2019-Jul-17 05:01N 38°33' W 009°29'815.9
2019-Jul-17 04:31N 38°25' W 009°29'816.2
2019-Jul-17 04:01N 38°17' W 009°29'816.3
2019-Jul-17 03:31N 38°09' W 009°28'816.4
2019-Jul-17 03:01N 38°00' W 009°27'815.7
2019-Jul-17 02:30N 37°52' W 009°26'816.4
2019-Jul-17 02:00N 37°44' W 009°26'1217.9
2019-Jul-17 01:21N 37°33' W 009°26'2919.6
2019-Jul-16 23:51N 37°03' W 009°23'719.4
2019-Jul-16 23:30N 36°57' W 009°21'1519.5
2019-Jul-16 22:44N 36°45' W 009°09'519.6
2019-Jul-16 22:30N 36°43' W 009°04'1019.4
2019-Jul-16 22:00N 36°42' W 008°52'1019.8
2019-Jul-16 21:31N 36°41' W 008°40'1019.8
2019-Jul-16 21:00N 36°40' W 008°28'1019.7
2019-Jul-16 20:30N 36°40' W 008°15'1019.4
2019-Jul-16 20:00N 36°39' W 008°03'1019.5
2019-Jul-16 19:30N 36°39' W 007°51'1019.7
2019-Jul-16 19:00N 36°38' W 007°39'1019.9
2019-Jul-16 18:30N 36°38' W 007°27'158 7.0
2019-Jul-15 19:53N 36°12' W 004°14'7017.5
2019-Jul-15 15:52N 36°23' W 002°48'819.9
2019-Jul-15 15:29N 36°24' W 002°38'919.9
2019-Jul-15 15:00N 36°25' W 002°26'1019.5
2019-Jul-15 14:30N 36°26' W 002°14'918.4
2019-Jul-15 14:00N 36°32' W 002°06'22416.7
2019-Jul-15 00:34N 39°26' E 000°53'3817.0
2019-Jul-14 22:21N 39°60' E 001°17'3217.0
2019-Jul-14 20:28N 40°28' E 001°37'1017.0
2019-Jul-14 19:54N 40°36' E 001°43'2517.0
2019-Jul-14 18:26N 40°58' E 001°59'717.1
2019-Jul-14 18:00N 41°05' E 002°03'815.6
2019-Jul-14 17:30N 41°12' E 002°08'814.3
2019-Jul-14 16:58N 41°19' E 002°10'2 0.5
2019-Jul-14 13:07N 41°21' E 002°10'0 0.0
2019-Jul-14 12:58N 41°21' E 002°10'0 0.0
2019-Jul-14 12:28N 41°21' E 002°10'0 0.0
2019-Jul-14 11:58N 41°21' E 002°10'0 0.0
2019-Jul-14 11:28N 41°21' E 002°10'0 0.0
2019-Jul-14 10:58N 41°21' E 002°10'0 0.0
2019-Jul-14 10:28N 41°21' E 002°10'0 0.0
2019-Jul-14 09:55N 41°21' E 002°10'0 0.0
2019-Jul-14 09:28N 41°21' E 002°10'0 0.0
2019-Jul-14 08:58N 41°21' E 002°10'3 0.5
2019-Jul-14 03:07N 41°18' E 002°10'1 9.2
2019-Jul-14 03:00N 41°18' E 002°11'4311.0
2019-Jul-13 23:04N 41°16' E 003°08'1 9.4
2019-Jul-13 23:00N 41°16' E 003°09'5 9.5
2019-Jul-13 22:30N 41°16' E 003°15'5 9.4
2019-Jul-13 22:00N 41°16' E 003°22'5 9.1
2019-Jul-13 21:30N 41°16' E 003°28'4 8.8
2019-Jul-13 21:00N 41°16' E 003°34'4 8.7
2019-Jul-13 20:30N 41°16' E 003°39'9 8.6
2019-Jul-13 19:25N 41°16' E 003°52'4 8.7
2019-Jul-13 19:00N 41°16' E 003°57'13512.2
2019-Jul-13 07:58N 41°17' E 006°56'1816.1
2019-Jul-13 06:51N 41°17' E 007°20'616.1
2019-Jul-13 06:30N 41°17' E 007°27'816.1
2019-Jul-13 06:00N 41°17' E 007°38'4216.3
2019-Jul-13 03:26N 41°17' E 008°34'716.5
2019-Jul-13 03:01N 41°17' E 008°43'4315.2
2019-Jul-13 00:11N 41°29' E 009°38'2216.2
2019-Jul-12 22:49N 41°37' E 010°06'1616.8
2019-Jul-12 21:53N 41°50' E 010°18'716.3
2019-Jul-12 21:29N 41°55' E 010°24'1914.3
2019-Jul-12 20:11N 41°50' E 010°48'32 1.8
2019-Jul-12 02:33N 42°03' E 011°27'2316.7
2019-Jul-12 01:10N 42°01' E 010°56'516.6
2019-Jul-12 00:53N 42°01' E 010°50'616.6
2019-Jul-12 00:30N 42°02' E 010°41'816.4
2019-Jul-11 23:59N 42°03' E 010°30'816.6
2019-Jul-11 23:30N 42°04' E 010°19'916.9
2019-Jul-11 22:58N 42°05' E 010°07'1216.4
2019-Jul-11 22:14N 42°15' E 009°58'1216.7
2019-Jul-11 21:30N 42°27' E 009°54'1117.0
2019-Jul-11 20:50N 42°38' E 009°54'617.1
2019-Jul-11 20:31N 42°44' E 009°53'917.2
2019-Jul-11 20:01N 42°52' E 009°57'917.1
2019-Jul-11 19:30N 43°00' E 010°01'816.9
2019-Jul-11 19:01N 43°08' E 010°03'817.0
2019-Jul-11 18:31N 43°16' E 010°06'917.1
2019-Jul-11 18:01N 43°25' E 010°09'815.4
2019-Jul-11 17:30N 43°31' E 010°14'3 6.3
2019-Jul-11 16:59N 43°33' E 010°18'0 0.0
2019-Jul-11 16:26N 43°33' E 010°18'0 0.0
2019-Jul-11 15:59N 43°33' E 010°18'0 0.0
2019-Jul-11 15:26N 43°33' E 010°18'0 0.0
2019-Jul-11 14:56N 43°33' E 010°18'0 0.0
2019-Jul-11 14:29N 43°33' E 010°18'0 0.0
2019-Jul-11 13:59N 43°33' E 010°18'0 0.0
2019-Jul-11 13:29N 43°33' E 010°18'0 0.0
2019-Jul-11 12:59N 43°33' E 010°18'0 0.0
2019-Jul-11 12:23N 43°33' E 010°18'0 0.0
2019-Jul-11 11:56N 43°33' E 010°18'0 0.0
2019-Jul-11 11:29N 43°33' E 010°18'0 0.0
2019-Jul-11 10:59N 43°33' E 010°18'0 0.0
2019-Jul-11 10:29N 43°33' E 010°18'0 0.0
2019-Jul-11 09:56N 43°33' E 010°18'0 0.0
2019-Jul-11 09:29N 43°33' E 010°18'0 0.0
2019-Jul-11 08:59N 43°33' E 010°18'0 0.0
2019-Jul-11 08:29N 43°33' E 010°18'0 0.0
2019-Jul-11 07:59N 43°33' E 010°18'0 0.0
2019-Jul-11 07:29N 43°33' E 010°18'0 0.0
2019-Jul-11 06:59N 43°33' E 010°18'0 0.0
2019-Jul-11 06:29N 43°33' E 010°18'0 0.0
2019-Jul-11 05:59N 43°33' E 010°18'0 0.0
2019-Jul-11 05:29N 43°33' E 010°18'0 0.0
2019-Jul-11 04:59N 43°33' E 010°18'0 0.0
2019-Jul-11 04:29N 43°33' E 010°18'0 0.1
2019-Jul-11 04:00N 43°33' E 010°18'4 8.2
2019-Jul-11 03:30N 43°31' E 010°13'510.1
2019-Jul-11 03:01N 43°30' E 010°06'510.0
2019-Jul-11 02:30N 43°31' E 009°59'5 9.9
2019-Jul-11 02:00N 43°31' E 009°53'5 9.9
2019-Jul-11 01:30N 43°31' E 009°46'5 9.7
2019-Jul-11 01:00N 43°32' E 009°39'5 9.3
2019-Jul-11 00:30N 43°31' E 009°33'5 9.2
2019-Jul-11 00:00N 43°31' E 009°26'5 9.1
2019-Jul-10 23:31N 43°31' E 009°20'815.9
2019-Jul-10 23:00N 43°31' E 009°09'917.3
2019-Jul-10 22:30N 43°31' E 008°57'917.5
2019-Jul-10 22:00N 43°30' E 008°45'917.6
2019-Jul-10 21:30N 43°30' E 008°33'917.3
2019-Jul-10 21:00N 43°30' E 008°21'917.0
2019-Jul-10 20:30N 43°30' E 008°09'917.1
2019-Jul-10 20:00N 43°29' E 007°58'816.9
2019-Jul-10 19:30N 43°29' E 007°46'816.7
2019-Jul-10 19:00N 43°29' E 007°35'816.6
2019-Jul-10 18:30N 43°28' E 007°23'816.6
2019-Jul-10 18:00N 43°28' E 007°12'714.4
2019-Jul-10 17:30N 43°28' E 007°02'4 7.3
2019-Jul-10 17:00N 43°32' E 007°01'0 0.1
2019-Jul-10 16:29N 43°32' E 007°01'0 0.0
2019-Jul-10 15:56N 43°32' E 007°01'0 0.0
2019-Jul-10 15:29N 43°32' E 007°01'0 0.0
2019-Jul-10 14:59N 43°32' E 007°01'0 0.0
2019-Jul-10 14:29N 43°32' E 007°01'0 0.0
2019-Jul-10 13:59N 43°32' E 007°01'0 0.0
2019-Jul-10 13:29N 43°32' E 007°01'0 0.0
2019-Jul-10 12:59N 43°32' E 007°01'0 0.0
2019-Jul-10 12:29N 43°32' E 007°01'0 0.0
2019-Jul-10 11:59N 43°32' E 007°01'0 0.0
2019-Jul-10 11:29N 43°32' E 007°01'0 0.0
2019-Jul-10 10:59N 43°32' E 007°01'0 0.1
2019-Jul-10 10:29N 43°32' E 007°01'0 0.1
2019-Jul-10 09:59N 43°32' E 007°01'0 0.0
2019-Jul-10 09:29N 43°32' E 007°01'0 0.0
2019-Jul-10 08:59N 43°32' E 007°01'0 0.0
2019-Jul-10 08:29N 43°32' E 007°01'0 0.0
2019-Jul-10 08:00N 43°32' E 007°01'0 0.0
2019-Jul-10 07:29N 43°32' E 007°01'0 0.0
2019-Jul-10 06:59N 43°32' E 007°01'0 0.0
2019-Jul-10 06:29N 43°32' E 007°01'0 0.0
2019-Jul-10 05:59N 43°32' E 007°01'1 2.6
2019-Jul-10 05:30N 43°31' E 007°00'510.4
2019-Jul-10 05:00N 43°26' E 006°60'815.7
2019-Jul-10 04:30N 43°18' E 006°57'817.0
2019-Jul-10 04:00N 43°10' E 006°52'816.7
2019-Jul-10 03:30N 43°03' E 006°46'817.1
2019-Jul-10 03:00N 42°58' E 006°37'917.1
2019-Jul-10 02:30N 42°52' E 006°28'917.3
2019-Jul-10 02:00N 42°48' E 006°18'918.5
2019-Jul-10 01:30N 42°44' E 006°07'1121.0
2019-Jul-10 01:00N 42°39' E 005°54'1121.3
2019-Jul-10 00:30N 42°34' E 005°41'7421.1
2019-Jul-09 21:00N 42°00' E 004°12'   330 / 391013.310.8 24.019.424.2
Track history (hours):
 
Tides and Currents Weather Stations Pressure Air Temp Water Temp Dewpoint Dewpoint Depression Visibility Wind Speed Wind Dir Waves Ship Positions

Disney Magic

Last reported at 2019-Jul-19 19:30 UTC. Time now 2019-Jul-19 19:31 UTC.
Position N 48°33' W 005°21'.

Type: Passenger vessel. MMSI: 308516000.

Date/timePositionNaut miles runAvg speedWind from/ knotsBaromVisibWave heightAir tempDewpointWater temp
2019-Jul-19 19:30N 48°33' W 005°21'916.6
2019-Jul-19 18:58N 48°24' W 005°22'817.1
2019-Jul-19 18:31N 48°21' W 005°11'917.9
2019-Jul-19 18:00N 48°16' W 004°59'918.4
2019-Jul-19 17:30N 48°17' W 004°45'714.1
2019-Jul-19 17:01N 48°20' W 004°36'611.2
2019-Jul-19 16:31N 48°22' W 004°28'1 1.8
2019-Jul-19 15:58N 48°23' W 004°27'0 0.0
2019-Jul-19 15:28N 48°23' W 004°27'0 0.0
2019-Jul-19 14:58N 48°23' W 004°27'0 0.0
2019-Jul-19 14:28N 48°23' W 004°27'0 0.0
2019-Jul-19 13:58N 48°23' W 004°27'0 0.0
2019-Jul-19 13:28N 48°23' W 004°27'0 0.0
2019-Jul-19 12:58N 48°23' W 004°27'0 0.0
2019-Jul-19 12:28N 48°23' W 004°27'0 0.0
2019-Jul-19 11:58N 48°23' W 004°27'0 0.0
2019-Jul-19 11:28N 48°23' W 004°27'0 0.0
2019-Jul-19 10:58N 48°23' W 004°27'0 0.0
2019-Jul-19 10:28N 48°23' W 004°27'0 0.0
2019-Jul-19 09:58N 48°23' W 004°27'0 0.0
2019-Jul-19 09:28N 48°23' W 004°27'0 0.0
2019-Jul-19 08:58N 48°23' W 004°27'0 0.0
2019-Jul-19 08:28N 48°23' W 004°27'0 0.0
2019-Jul-19 07:58N 48°23' W 004°27'0 0.0
2019-Jul-19 07:28N 48°23' W 004°27'0 0.0
2019-Jul-19 06:58N 48°23' W 004°27'0 0.0
2019-Jul-19 06:28N 48°23' W 004°27'0 0.0
2019-Jul-19 05:58N 48°23' W 004°27'0 0.0
2019-Jul-19 05:28N 48°23' W 004°27'0 0.0
2019-Jul-19 05:00N 48°23' W 004°27'1 2.3
2019-Jul-19 04:30N 48°22' W 004°28'713.3
2019-Jul-19 04:00N 48°20' W 004°38'510.3
2019-Jul-19 03:30N 48°17' W 004°44'613.0
2019-Jul-19 03:01N 48°14' W 004°53'815.8
2019-Jul-19 02:31N 48°10' W 005°03'816.1
2019-Jul-19 02:01N 48°06' W 005°13'815.6
2019-Jul-19 01:30N 47°59' W 005°20'816.8
2019-Jul-19 01:00N 47°52' W 005°27'1017.8
2019-Jul-19 00:27N 47°44' W 005°35'817.3
2019-Jul-19 00:00N 47°38' W 005°41'1117.4
2019-Jul-18 23:23N 47°29' W 005°50'916.4
2019-Jul-18 22:50N 47°21' W 005°57'816.8
2019-Jul-18 22:20N 47°13' W 006°03'616.8
2019-Jul-18 21:57N 47°08' W 006°08'917.3
2019-Jul-18 21:27N 47°00' W 006°14'1417.0
2019-Jul-18 20:38N 46°50' W 006°27'31020.2
2019-Jul-18 05:16N 42°14' W 009°46'721.0
2019-Jul-18 04:56N 42°07' W 009°45'4720.5
2019-Jul-18 02:37N 41°20' W 009°45'220.0
2019-Jul-18 02:31N 41°17' W 009°45'1020.1
2019-Jul-18 02:01N 41°07' W 009°45'1020.0
2019-Jul-18 01:30N 40°57' W 009°45'1019.8
2019-Jul-18 01:00N 40°47' W 009°44'1419.6
2019-Jul-18 00:17N 40°33' W 009°44'619.7
2019-Jul-18 00:00N 40°28' W 009°44'3019.5
2019-Jul-17 22:28N 39°58' W 009°44'1419.5
2019-Jul-17 21:45N 39°44' W 009°44'919.5
2019-Jul-17 21:19N 39°35' W 009°43'719.5
2019-Jul-17 20:58N 39°29' W 009°43'919.0
2019-Jul-17 20:30N 39°20' W 009°43'918.8
2019-Jul-17 20:00N 39°10' W 009°43'918.9
2019-Jul-17 19:31N 39°01' W 009°43'1019.1
2019-Jul-17 19:00N 38°51' W 009°43'1019.0
2019-Jul-17 18:30N 38°42' W 009°42'714.9
2019-Jul-17 18:00N 38°37' W 009°35'816.6
2019-Jul-17 17:31N 38°36' W 009°24'816.6
2019-Jul-17 17:00N 38°41' W 009°16'5 9.7
2019-Jul-17 16:31N 38°42' W 009°09'2 3.1
2019-Jul-17 15:58N 38°43' W 009°08'0 0.0
2019-Jul-17 15:28N 38°43' W 009°08'0 0.0
2019-Jul-17 14:59N 38°43' W 009°08'0 0.0
2019-Jul-17 14:29N 38°43' W 009°08'0 0.0
2019-Jul-17 13:58N 38°43' W 009°08'0 0.0
2019-Jul-17 13:29N 38°43' W 009°08'0 0.0
2019-Jul-17 12:58N 38°43' W 009°08'0 0.0
2019-Jul-17 12:29N 38°43' W 009°08'0 0.0
2019-Jul-17 11:59N 38°43' W 009°08'0 0.0
2019-Jul-17 11:28N 38°43' W 009°08'0 0.0
2019-Jul-17 10:58N 38°43' W 009°08'0 0.0
2019-Jul-17 10:28N 38°43' W 009°08'0 0.0
2019-Jul-17 09:58N 38°43' W 009°08'0 0.0
2019-Jul-17 09:28N 38°43' W 009°08'0 0.0
2019-Jul-17 08:58N 38°43' W 009°08'0 0.0
2019-Jul-17 08:22N 38°43' W 009°08'0 0.0
2019-Jul-17 07:58N 38°43' W 009°08'0 0.0
2019-Jul-17 07:28N 38°43' W 009°08'0 0.0
2019-Jul-17 06:58N 38°43' W 009°08'1 1.4
2019-Jul-17 06:30N 38°42' W 009°08'5 9.5
2019-Jul-17 06:00N 38°41' W 009°14'612.3
2019-Jul-17 05:31N 38°38' W 009°21'816.2
2019-Jul-17 05:01N 38°33' W 009°29'815.9
2019-Jul-17 04:31N 38°25' W 009°29'816.2
2019-Jul-17 04:01N 38°17' W 009°29'816.3
2019-Jul-17 03:31N 38°09' W 009°28'816.4
2019-Jul-17 03:01N 38°00' W 009°27'815.7
2019-Jul-17 02:30N 37°52' W 009°26'816.4
2019-Jul-17 02:00N 37°44' W 009°26'1217.9
2019-Jul-17 01:21N 37°33' W 009°26'2919.6
2019-Jul-16 23:51N 37°03' W 009°23'719.4
2019-Jul-16 23:30N 36°57' W 009°21'1519.5
2019-Jul-16 22:44N 36°45' W 009°09'519.6
2019-Jul-16 22:30N 36°43' W 009°04'1019.4
2019-Jul-16 22:00N 36°42' W 008°52'1019.8
2019-Jul-16 21:31N 36°41' W 008°40'1019.8
2019-Jul-16 21:00N 36°40' W 008°28'1019.7
2019-Jul-16 20:30N 36°40' W 008°15'1019.4
2019-Jul-16 20:00N 36°39' W 008°03'1019.5
2019-Jul-16 19:30N 36°39' W 007°51'1019.7
2019-Jul-16 19:00N 36°38' W 007°39'1019.9
2019-Jul-16 18:30N 36°38' W 007°27'158 7.0
2019-Jul-15 19:53N 36°12' W 004°14'7017.5
2019-Jul-15 15:52N 36°23' W 002°48'819.9
2019-Jul-15 15:29N 36°24' W 002°38'919.9
2019-Jul-15 15:00N 36°25' W 002°26'1019.5
2019-Jul-15 14:30N 36°26' W 002°14'918.4
2019-Jul-15 14:00N 36°32' W 002°06'22416.7
2019-Jul-15 00:34N 39°26' E 000°53'3817.0
2019-Jul-14 22:21N 39°60' E 001°17'3217.0
2019-Jul-14 20:28N 40°28' E 001°37'1017.0
2019-Jul-14 19:54N 40°36' E 001°43'2517.0
2019-Jul-14 18:26N 40°58' E 001°59'717.1
2019-Jul-14 18:00N 41°05' E 002°03'815.6
2019-Jul-14 17:30N 41°12' E 002°08'814.3
2019-Jul-14 16:58N 41°19' E 002°10'2 0.5
2019-Jul-14 13:07N 41°21' E 002°10'0 0.0
2019-Jul-14 12:58N 41°21' E 002°10'0 0.0
2019-Jul-14 12:28N 41°21' E 002°10'0 0.0
2019-Jul-14 11:58N 41°21' E 002°10'0 0.0
2019-Jul-14 11:28N 41°21' E 002°10'0 0.0
2019-Jul-14 10:58N 41°21' E 002°10'0 0.0
2019-Jul-14 10:28N 41°21' E 002°10'0 0.0
2019-Jul-14 09:55N 41°21' E 002°10'0 0.0
2019-Jul-14 09:28N 41°21' E 002°10'0 0.0
2019-Jul-14 08:58N 41°21' E 002°10'3 0.5
2019-Jul-14 03:07N 41°18' E 002°10'1 9.2
2019-Jul-14 03:00N 41°18' E 002°11'4311.0
2019-Jul-13 23:04N 41°16' E 003°08'1 9.4
2019-Jul-13 23:00N 41°16' E 003°09'5 9.5
2019-Jul-13 22:30N 41°16' E 003°15'5 9.4
2019-Jul-13 22:00N 41°16' E 003°22'5 9.1
2019-Jul-13 21:30N 41°16' E 003°28'4 8.8
2019-Jul-13 21:00N 41°16' E 003°34'4 8.7
2019-Jul-13 20:30N 41°16' E 003°39'9 8.6
2019-Jul-13 19:25N 41°16' E 003°52'4 8.7
2019-Jul-13 19:00N 41°16' E 003°57'13512.2
2019-Jul-13 07:58N 41°17' E 006°56'1816.1
2019-Jul-13 06:51N 41°17' E 007°20'616.1
2019-Jul-13 06:30N 41°17' E 007°27'816.1
2019-Jul-13 06:00N 41°17' E 007°38'4216.3
2019-Jul-13 03:26N 41°17' E 008°34'716.5
2019-Jul-13 03:01N 41°17' E 008°43'4315.2
2019-Jul-13 00:11N 41°29' E 009°38'2216.2
2019-Jul-12 22:49N 41°37' E 010°06'1616.8
2019-Jul-12 21:53N 41°50' E 010°18'716.3
2019-Jul-12 21:29N 41°55' E 010°24'1914.3
2019-Jul-12 20:11N 41°50' E 010°48'32 1.8
2019-Jul-12 02:33N 42°03' E 011°27'2316.7
2019-Jul-12 01:10N 42°01' E 010°56'516.6
2019-Jul-12 00:53N 42°01' E 010°50'616.6
2019-Jul-12 00:30N 42°02' E 010°41'816.4
2019-Jul-11 23:59N 42°03' E 010°30'816.6
2019-Jul-11 23:30N 42°04' E 010°19'916.9
2019-Jul-11 22:58N 42°05' E 010°07'1216.4
2019-Jul-11 22:14N 42°15' E 009°58'1216.7
2019-Jul-11 21:30N 42°27' E 009°54'1117.0
2019-Jul-11 20:50N 42°38' E 009°54'617.1
2019-Jul-11 20:31N 42°44' E 009°53'917.2
2019-Jul-11 20:01N 42°52' E 009°57'917.1
2019-Jul-11 19:30N 43°00' E 010°01'816.9
2019-Jul-11 19:01N 43°08' E 010°03'817.0
2019-Jul-11 18:31N 43°16' E 010°06'917.1
2019-Jul-11 18:01N 43°25' E 010°09'815.4
2019-Jul-11 17:30N 43°31' E 010°14'3 6.3
2019-Jul-11 16:59N 43°33' E 010°18'0 0.0
2019-Jul-11 16:26N 43°33' E 010°18'0 0.0
2019-Jul-11 15:59N 43°33' E 010°18'0 0.0
2019-Jul-11 15:26N 43°33' E 010°18'0 0.0
2019-Jul-11 14:56N 43°33' E 010°18'0 0.0
2019-Jul-11 14:29N 43°33' E 010°18'0 0.0
2019-Jul-11 13:59N 43°33' E 010°18'0 0.0
2019-Jul-11 13:29N 43°33' E 010°18'0 0.0
2019-Jul-11 12:59N 43°33' E 010°18'0 0.0
2019-Jul-11 12:23N 43°33' E 010°18'0 0.0
2019-Jul-11 11:56N 43°33' E 010°18'0 0.0
2019-Jul-11 11:29N 43°33' E 010°18'0 0.0
2019-Jul-11 10:59N 43°33' E 010°18'0 0.0
2019-Jul-11 10:29N 43°33' E 010°18'0 0.0
2019-Jul-11 09:56N 43°33' E 010°18'0 0.0
2019-Jul-11 09:29N 43°33' E 010°18'0 0.0
2019-Jul-11 08:59N 43°33' E 010°18'0 0.0
2019-Jul-11 08:29N 43°33' E 010°18'0 0.0
2019-Jul-11 07:59N 43°33' E 010°18'0 0.0
2019-Jul-11 07:29N 43°33' E 010°18'0 0.0
2019-Jul-11 06:59N 43°33' E 010°18'0 0.0
2019-Jul-11 06:29N 43°33' E 010°18'0 0.0
2019-Jul-11 05:59N 43°33' E 010°18'0 0.0
2019-Jul-11 05:29N 43°33' E 010°18'0 0.0
2019-Jul-11 04:59N 43°33' E 010°18'0 0.0
2019-Jul-11 04:29N 43°33' E 010°18'0 0.1
2019-Jul-11 04:00N 43°33' E 010°18'4 8.2
2019-Jul-11 03:30N 43°31' E 010°13'510.1
2019-Jul-11 03:01N 43°30' E 010°06'510.0
2019-Jul-11 02:30N 43°31' E 009°59'5 9.9
2019-Jul-11 02:00N 43°31' E 009°53'5 9.9
2019-Jul-11 01:30N 43°31' E 009°46'5 9.7
2019-Jul-11 01:00N 43°32' E 009°39'5 9.3
2019-Jul-11 00:30N 43°31' E 009°33'5 9.2
2019-Jul-11 00:00N 43°31' E 009°26'5 9.1
2019-Jul-10 23:31N 43°31' E 009°20'815.9
2019-Jul-10 23:00N 43°31' E 009°09'917.3
2019-Jul-10 22:30N 43°31' E 008°57'917.5
2019-Jul-10 22:00N 43°30' E 008°45'917.6
2019-Jul-10 21:30N 43°30' E 008°33'917.3
2019-Jul-10 21:00N 43°30' E 008°21'917.0
2019-Jul-10 20:30N 43°30' E 008°09'917.1
2019-Jul-10 20:00N 43°29' E 007°58'816.9
2019-Jul-10 19:30N 43°29' E 007°46'816.7
2019-Jul-10 19:00N 43°29' E 007°35'816.6
2019-Jul-10 18:30N 43°28' E 007°23'816.6
2019-Jul-10 18:00N 43°28' E 007°12'714.4
2019-Jul-10 17:30N 43°28' E 007°02'4 7.3
2019-Jul-10 17:00N 43°32' E 007°01'0 0.1
2019-Jul-10 16:29N 43°32' E 007°01'0 0.0
2019-Jul-10 15:56N 43°32' E 007°01'0 0.0
2019-Jul-10 15:29N 43°32' E 007°01'0 0.0
2019-Jul-10 14:59N 43°32' E 007°01'0 0.0
2019-Jul-10 14:29N 43°32' E 007°01'0 0.0
2019-Jul-10 13:59N 43°32' E 007°01'0 0.0
2019-Jul-10 13:29N 43°32' E 007°01'0 0.0
2019-Jul-10 12:59N 43°32' E 007°01'0 0.0
2019-Jul-10 12:29N 43°32' E 007°01'0 0.0
2019-Jul-10 11:59N 43°32' E 007°01'0 0.0
2019-Jul-10 11:29N 43°32' E 007°01'0 0.0
2019-Jul-10 10:59N 43°32' E 007°01'0 0.1
2019-Jul-10 10:29N 43°32' E 007°01'0 0.1
2019-Jul-10 09:59N 43°32' E 007°01'0 0.0
2019-Jul-10 09:29N 43°32' E 007°01'0 0.0
2019-Jul-10 08:59N 43°32' E 007°01'0 0.0
2019-Jul-10 08:29N 43°32' E 007°01'0 0.0
2019-Jul-10 08:00N 43°32' E 007°01'0 0.0
2019-Jul-10 07:29N 43°32' E 007°01'0 0.0
2019-Jul-10 06:59N 43°32' E 007°01'0 0.0
2019-Jul-10 06:29N 43°32' E 007°01'0 0.0
2019-Jul-10 05:59N 43°32' E 007°01'1 2.6
2019-Jul-10 05:30N 43°31' E 007°00'510.4
2019-Jul-10 05:00N 43°26' E 006°60'815.7
2019-Jul-10 04:30N 43°18' E 006°57'817.0
2019-Jul-10 04:00N 43°10' E 006°52'816.7
2019-Jul-10 03:30N 43°03' E 006°46'817.1
2019-Jul-10 03:00N 42°58' E 006°37'917.1
2019-Jul-10 02:30N 42°52' E 006°28'917.3
2019-Jul-10 02:00N 42°48' E 006°18'918.5
2019-Jul-10 01:30N 42°44' E 006°07'1121.0
2019-Jul-10 01:00N 42°39' E 005°54'1121.3
2019-Jul-10 00:30N 42°34' E 005°41'7421.1
2019-Jul-09 21:00N 42°00' E 004°12'   330 / 391013.310.8 24.019.424.2

Dump ship's entire track history